createdAt,value
2018-10-09T01:30:12.116Z,96630.79
2018-10-09T01:32:40.747Z,96634.30
2018-10-09T01:35:09.336Z,96634.78
2018-10-09T01:37:37.931Z,96637.91
2018-10-09T01:40:06.548Z,96634.67
2018-10-09T01:42:35.120Z,96638.40
2018-10-09T01:45:03.692Z,96637.38
2018-10-09T01:47:32.427Z,96639.14
2018-10-09T01:50:00.981Z,96641.00
2018-10-09T01:52:29.544Z,96642.66
2018-10-09T01:54:58.128Z,96641.25
2018-10-09T01:57:26.648Z,96635.23
2018-10-09T01:59:55.225Z,96640.52
2018-10-09T02:02:24.579Z,96636.44
2018-10-09T02:04:53.107Z,96642.02
2018-10-09T02:07:21.712Z,96639.34
2018-10-09T02:09:50.232Z,96642.25
2018-10-09T02:12:18.767Z,96642.05
2018-10-09T02:14:47.308Z,96644.50
2018-10-09T02:17:15.897Z,96643.79
2018-10-09T02:19:44.408Z,96651.83
2018-10-09T02:22:12.957Z,96649.27
2018-10-09T02:24:41.495Z,96653.31
2018-10-09T02:27:10.147Z,96650.63
2018-10-09T02:29:38.690Z,96658.97
2018-10-09T02:32:07.232Z,96658.33
2018-10-09T02:34:35.787Z,96647.69
2018-10-09T02:37:04.336Z,96651.28
2018-10-09T02:39:32.872Z,96656.52
2018-10-09T02:42:01.408Z,96662.73
2018-10-09T02:44:29.951Z,96652.78
2018-10-09T02:46:58.480Z,96662.28
2018-10-09T02:49:27.027Z,96660.33
2018-10-09T02:51:55.575Z,96657.95
2018-10-09T02:54:24.167Z,96663.19
2018-10-09T02:56:52.724Z,96661.01
2018-10-09T02:59:21.252Z,96667.19
2018-10-09T03:01:49.792Z,96662.86
2018-10-09T03:04:18.373Z,96665.30
2018-10-09T03:06:46.942Z,96661.58
2018-10-09T03:09:15.516Z,96663.58
2018-10-09T03:11:44.092Z,96660.73
2018-10-09T03:14:12.617Z,96657.38
2018-10-09T03:16:41.176Z,96651.39
2018-10-09T03:19:09.754Z,96655.65
2018-10-09T03:21:38.308Z,96650.59
2018-10-09T03:24:07.072Z,96656.14
2018-10-09T03:26:35.720Z,96659.50
2018-10-09T03:29:04.304Z,96648.86
2018-10-09T03:31:32.943Z,96652.07
2018-10-09T03:34:01.472Z,96650.26
2018-10-09T03:36:30.005Z,96655.42
2018-10-09T03:38:58.577Z,96652.38
2018-10-09T03:41:27.120Z,96652.03
2018-10-09T03:43:55.743Z,96654.86
2018-10-09T03:46:24.271Z,96653.88
2018-10-09T03:48:52.804Z,96653.08
2018-10-09T03:51:21.364Z,96653.28
2018-10-09T03:53:49.908Z,96655.72
2018-10-09T03:56:18.456Z,96649.09
2018-10-09T03:58:47.016Z,96651.91
2018-10-09T04:01:15.560Z,96658.39
2018-10-09T04:03:44.089Z,96660.50
2018-10-09T04:06:12.627Z,96659.83
2018-10-09T04:08:41.177Z,96650.98
2018-10-09T04:11:09.703Z,96654.50
2018-10-09T04:13:38.255Z,96661.02
2018-10-09T04:16:07.539Z,96653.40
2018-10-09T04:18:36.091Z,96652.83
2018-10-09T04:21:04.680Z,96657.44
2018-10-09T04:23:33.224Z,96659.02
2018-10-09T04:26:01.779Z,96664.41
2018-10-09T04:28:30.354Z,96657.78
2018-10-09T04:30:58.912Z,96658.89
2018-10-09T04:33:32.512Z,96660.95
2018-10-09T04:36:01.066Z,96660.46
2018-10-09T04:38:29.805Z,96664.98
2018-10-09T04:40:58.340Z,96659.48
2018-10-09T04:43:26.886Z,96664.26
2018-10-09T04:45:55.412Z,96665.54
2018-10-09T04:48:23.972Z,96671.28
2018-10-09T04:50:52.496Z,96676.08
2018-10-09T04:53:21.027Z,96674.69
2018-10-09T04:55:49.580Z,96674.45
2018-10-09T04:58:18.745Z,96676.73
2018-10-09T05:00:47.309Z,96686.05
2018-10-09T05:03:15.827Z,96684.53
2018-10-09T05:05:44.356Z,96681.75
2018-10-09T05:08:13.792Z,96682.16
2018-10-09T05:10:42.332Z,96677.30
2018-10-09T05:13:10.872Z,96681.59
2018-10-09T05:15:39.428Z,96681.25
2018-10-09T05:18:08.031Z,96683.70
2018-10-09T05:23:26.625Z,96688.77
2018-10-09T05:25:55.376Z,96691.59
2018-10-09T05:28:23.968Z,96702.41
2018-10-09T05:30:52.751Z,96699.78
2018-10-09T05:33:21.333Z,96701.52
2018-10-09T05:35:49.871Z,96704.29
2018-10-09T05:38:18.404Z,96699.27
2018-10-09T05:40:46.952Z,96701.21
2018-10-09T05:43:15.482Z,96700.28
2018-10-09T05:45:44.061Z,96700.90
2018-10-09T05:48:12.612Z,96701.62
2018-10-09T05:50:41.163Z,96705.25
2018-10-09T05:53:09.711Z,96714.48
2018-10-09T05:55:38.328Z,96713.38
2018-10-09T05:58:07.214Z,96709.58
2018-10-09T06:00:35.675Z,96715.31
2018-10-09T06:03:04.199Z,96726.33
2018-10-09T06:05:32.732Z,96725.74
2018-10-09T06:08:01.292Z,96726.22
2018-10-09T06:10:29.851Z,96728.47
2018-10-09T06:12:58.373Z,96728.63
2018-10-09T06:15:26.903Z,96728.66
2018-10-09T06:17:55.509Z,96730.62
2018-10-09T06:20:24.057Z,96731.79
2018-10-09T06:22:52.666Z,96731.07
2018-10-09T06:25:21.200Z,96737.53
2018-10-09T06:27:49.787Z,96734.86
2018-10-09T06:30:18.309Z,96728.18
2018-10-09T06:32:46.842Z,96732.64
2018-10-09T06:35:15.392Z,96730.13
2018-10-09T06:37:43.933Z,96732.06
2018-10-09T06:40:12.488Z,96733.05
2018-10-09T06:42:41.092Z,96730.76
2018-10-09T06:45:09.620Z,96738.09
2018-10-09T06:47:38.600Z,96743.34
2018-10-09T06:50:07.391Z,96742.06
2018-10-09T06:52:35.956Z,96736.22
2018-10-09T06:55:04.660Z,96734.66
2018-10-09T06:57:33.259Z,96736.70
2018-10-09T07:00:01.856Z,96733.45
2018-10-09T07:02:30.338Z,96734.40
2018-10-09T07:04:58.876Z,96740.63
2018-10-09T07:07:27.452Z,96741.68
2018-10-09T07:09:56.017Z,96738.75
2018-10-09T07:12:24.556Z,96736.23
2018-10-09T07:14:53.227Z,96749.26
2018-10-09T11:05:59.885Z,96730.63
2018-10-09T11:08:28.481Z,96731.47
2018-10-09T11:10:57.024Z,96732.28
2018-10-09T11:13:25.569Z,96728.79
2018-10-09T11:15:54.142Z,96737.26
2018-10-09T11:18:22.668Z,96716.55
2018-10-09T11:20:51.205Z,96723.27
2018-10-09T11:23:19.777Z,96722.95
2018-10-09T11:25:48.557Z,96721.00
2018-10-09T11:28:17.263Z,96718.84
2018-10-09T11:30:45.848Z,96715.14
2018-10-09T11:33:14.477Z,96719.27
2018-10-09T11:35:43.032Z,96720.79
2018-10-09T11:38:11.556Z,96713.96
2018-10-09T11:40:40.117Z,96715.31
2018-10-09T11:43:08.674Z,96713.53
2018-10-09T11:45:37.245Z,96718.20
2018-10-09T11:48:06.070Z,96713.98
2018-10-09T11:50:34.616Z,96711.13
2018-10-09T11:53:03.172Z,96715.37
2018-10-09T11:58:21.863Z,96711.95
2018-10-09T12:00:52.025Z,96711.52
2018-10-09T12:03:20.629Z,96707.34
2018-10-09T12:05:49.329Z,96712.39
2018-10-09T12:08:17.867Z,96705.82
2018-10-09T12:10:46.452Z,96716.20
2018-10-09T12:13:15.004Z,96700.83
2018-10-09T12:15:43.571Z,96708.88
2018-10-09T12:18:12.144Z,96702.30
2018-10-09T12:20:40.698Z,96703.92
2018-10-09T12:23:09.400Z,96712.44
2018-10-09T12:25:37.991Z,96712.81
2018-10-09T12:28:06.537Z,96699.17
2018-10-09T12:30:35.113Z,96708.59
2018-10-09T12:33:03.735Z,96697.91
2018-10-09T12:35:32.278Z,96708.02
2018-10-09T12:38:00.823Z,96700.66
2018-10-09T12:40:29.364Z,96692.02
2018-10-09T12:42:57.910Z,96691.42
2018-10-09T12:45:26.431Z,96689.84
2018-10-09T12:47:55.044Z,96691.05
2018-10-09T12:50:23.591Z,96689.66
2018-10-09T12:52:52.189Z,96685.02
2018-10-09T12:55:20.698Z,96690.15
2018-10-09T12:57:49.232Z,96690.50
2018-10-09T13:00:17.780Z,96699.63
2018-10-09T13:02:46.356Z,96697.47
2018-10-09T13:05:15.309Z,96701.51
2018-10-09T13:07:43.868Z,96694.86
2018-10-09T13:10:12.459Z,96692.91
2018-10-09T13:12:41.058Z,96685.31
2018-10-09T13:15:10.188Z,96687.02
2018-10-09T13:17:39.061Z,96682.23
2018-10-09T13:20:07.805Z,96681.01
2018-10-09T13:22:36.494Z,96685.39
2018-10-09T13:25:05.033Z,96678.04
2018-10-09T13:27:33.567Z,96684.52
2018-10-09T13:30:02.137Z,96682.70
2018-10-09T13:32:30.693Z,96677.75
2018-10-09T13:34:59.219Z,96678.47
2018-10-09T13:37:27.792Z,96677.36
2018-10-09T13:39:56.305Z,96676.69
2018-10-09T13:42:24.884Z,96673.35
2018-10-09T13:44:53.468Z,96672.41
2018-10-09T13:47:22.049Z,96667.47
2018-10-09T13:49:50.568Z,96675.11
2018-10-09T13:52:19.123Z,96674.09
2018-10-09T13:54:47.723Z,96670.66
2018-10-09T13:57:16.555Z,96670.02
2018-10-09T13:59:45.057Z,96666.92
2018-10-09T14:02:13.628Z,96667.25
2018-10-09T14:04:42.246Z,96665.23
2018-10-09T14:07:10.834Z,96662.05
2018-10-09T14:09:39.371Z,96659.98
2018-10-09T14:12:07.934Z,96661.75
2018-10-09T14:14:36.891Z,96654.21
2018-10-09T14:17:05.468Z,96652.60
2018-10-09T14:19:34.019Z,96644.41
2018-10-09T14:22:02.592Z,96646.25
2018-10-09T14:24:31.395Z,96651.48
2018-10-09T14:26:59.980Z,96650.48
2018-10-09T14:29:28.524Z,96649.93
2018-10-09T14:31:57.096Z,96650.48
2018-10-09T14:34:25.659Z,96650.91
2018-10-09T14:36:54.224Z,96647.92
2018-10-09T14:39:22.764Z,96650.91
2018-10-09T14:41:51.311Z,96651.78
2018-10-09T14:44:19.885Z,96654.36
2018-10-09T14:46:48.432Z,96657.73
2018-10-09T14:49:16.992Z,96656.13
2018-10-09T14:51:45.553Z,96656.09
2018-10-09T14:54:14.151Z,96653.02
2018-10-09T14:56:42.691Z,96654.30
2018-10-09T14:59:11.333Z,96647.77
2018-10-09T15:01:39.899Z,96652.08
2018-10-09T15:04:08.555Z,96646.49
2018-10-09T15:06:37.093Z,96652.27
2018-10-09T15:09:09.282Z,96648.87
2018-10-09T15:11:37.800Z,96650.20
2018-10-09T15:14:06.371Z,96649.84
2018-10-09T15:16:34.984Z,96649.47
2018-10-09T15:19:03.494Z,96654.50
2018-10-09T15:21:32.039Z,96654.95
2018-10-09T15:24:00.613Z,96659.35
2018-10-09T15:26:29.135Z,96661.73
2018-10-09T15:28:57.877Z,96664.52
2018-10-09T15:31:26.448Z,96666.00
2018-10-09T15:33:54.968Z,96667.30
2018-10-09T15:36:23.523Z,96674.08
2018-10-09T15:38:52.069Z,96680.47
2018-10-09T15:41:20.609Z,96676.28
2018-10-09T15:43:49.168Z,96681.22
2018-10-09T15:46:17.713Z,96678.02
2018-10-09T15:48:46.247Z,96686.69
2018-10-09T15:51:14.792Z,96683.77
2018-10-09T15:53:43.342Z,96679.87
2018-10-09T15:56:18.881Z,96677.51
2018-10-09T15:58:47.404Z,96679.52
2018-10-09T16:01:15.953Z,96680.23
2018-10-09T16:03:44.499Z,96677.80
2018-10-09T16:06:13.059Z,96676.67
2018-10-09T16:08:41.588Z,96677.66
2018-10-09T16:11:10.152Z,96668.61
2018-10-09T16:13:38.681Z,96678.05
2018-10-09T16:16:07.308Z,96676.73
2018-10-09T21:05:14.124Z,96760.63
2018-10-09T21:07:42.635Z,96756.28
2018-10-09T21:10:11.178Z,96757.80
2018-10-09T21:12:39.723Z,96755.41
2018-10-09T21:15:08.348Z,96757.80
2018-10-09T21:17:36.940Z,96754.10
2018-10-09T21:20:05.549Z,96753.77
2018-10-09T21:22:34.180Z,96756.63
2018-10-09T21:25:02.759Z,96753.68
2018-10-09T21:27:31.750Z,96749.45
2018-10-09T21:30:00.468Z,96749.68
2018-10-09T21:32:28.920Z,96753.73
2018-10-09T21:34:57.498Z,96754.10
2018-10-09T21:37:26.079Z,96756.69
2018-10-09T21:39:54.664Z,96753.91
2018-10-09T21:42:23.184Z,96748.28
2018-10-09T21:44:51.728Z,96745.73
2018-10-09T21:47:20.299Z,96743.25
2018-10-09T21:49:48.884Z,96742.59
2018-10-09T21:52:17.496Z,96733.30
2018-10-09T21:54:46.060Z,96733.30
2018-10-09T21:57:14.656Z,96729.80
2018-10-09T21:59:43.260Z,96731.98
2018-10-09T22:02:11.840Z,96733.42
2018-10-09T22:04:40.379Z,96730.52
2018-10-09T22:07:09.001Z,96732.20
2018-10-09T22:09:37.553Z,96724.56
2018-10-09T22:12:06.130Z,96723.20
2018-10-09T22:14:34.661Z,96726.84
2018-10-09T22:17:03.860Z,96725.85
2018-10-09T22:22:35.144Z,96727.85
2018-10-09T22:25:03.695Z,96724.70
2018-10-09T22:27:32.236Z,96722.41
2018-10-09T22:30:00.832Z,96725.48
2018-10-09T22:32:29.460Z,96729.50
2018-10-09T22:34:57.991Z,96732.36
2018-10-09T22:37:26.524Z,96734.95
2018-10-09T22:39:55.059Z,96729.34
2018-10-09T22:42:23.589Z,96730.30
2018-10-09T22:44:52.144Z,96725.55
2018-10-09T22:47:20.719Z,96722.25
2018-10-09T22:49:49.256Z,96724.72
2018-10-09T22:52:17.796Z,96726.91
2018-10-09T22:54:46.316Z,96727.55
2018-10-09T22:57:14.860Z,96732.78
2018-10-09T22:59:43.412Z,96732.77
2018-10-09T23:02:11.965Z,96732.06
2018-10-09T23:04:40.532Z,96734.91
2018-10-09T23:07:09.063Z,96740.10
2018-10-09T23:09:37.596Z,96741.03
2018-10-09T23:12:06.134Z,96740.36
2018-10-09T23:14:34.704Z,96741.52
2018-10-09T23:17:03.293Z,96737.92
2018-10-09T23:22:34.716Z,96736.27
2018-10-09T23:25:03.295Z,96733.86
2018-10-09T23:27:32.037Z,96737.36
2018-10-09T23:30:00.800Z,96735.28
2018-10-09T23:32:29.534Z,96733.41
2018-10-09T23:34:58.127Z,96732.58
2018-10-09T23:37:27.087Z,96734.91
2018-10-09T23:39:55.852Z,96735.86
2018-10-09T23:42:24.447Z,96731.78
2018-10-09T23:44:54.104Z,96738.44
2018-10-09T23:47:22.757Z,96735.65
2018-10-09T23:49:51.508Z,96736.44
2018-10-09T23:52:20.439Z,96738.56
2018-10-09T23:54:49.145Z,96727.93
2018-10-09T23:57:17.951Z,96729.42
2018-10-09T23:59:46.645Z,96728.47
